createdAt,value
2018-02-15T00:02:05.150Z,9.90
2018-02-15T00:04:32.970Z,9.67
2018-02-15T00:07:00.775Z,9.83
2018-02-15T00:09:28.378Z,9.90
2018-02-15T00:11:55.934Z,9.90
2018-02-15T00:14:23.514Z,10.57
2018-02-15T00:16:51.374Z,10.10
2018-02-15T00:19:19.258Z,11.43
2018-02-15T00:21:46.813Z,11.30
2018-02-15T00:24:14.835Z,11.30
2018-02-15T00:26:43.167Z,10.47
2018-02-15T00:29:10.725Z,11.00
2018-02-15T00:31:38.610Z,9.77
2018-02-15T00:34:06.175Z,10.40
2018-02-15T00:36:37.493Z,11.00
2018-02-15T00:39:05.438Z,10.83
2018-02-15T00:41:33.001Z,10.40
2018-02-15T00:44:00.573Z,10.40
2018-02-15T00:46:28.502Z,11.47
2018-02-15T00:48:56.071Z,10.70
2018-02-15T00:51:23.639Z,11.57
2018-02-15T00:53:51.244Z,12.40
2018-02-15T00:56:18.807Z,12.60
2018-02-15T00:58:47.888Z,10.93
2018-02-15T01:01:16.831Z,10.90
2018-02-15T01:03:44.404Z,12.47
2018-02-15T01:06:11.977Z,13.10
2018-02-15T01:08:39.833Z,13.17
2018-02-15T01:11:07.411Z,12.50
2018-02-15T01:13:34.984Z,12.30
2018-02-15T01:16:02.900Z,12.67
2018-02-15T01:18:30.452Z,12.67
2018-02-15T01:20:58.029Z,12.27
2018-02-15T01:23:25.622Z,13.93
2018-02-15T01:25:53.192Z,12.33
2018-02-15T01:28:21.199Z,13.10
2018-02-15T01:30:48.855Z,13.40
2018-02-15T01:33:16.422Z,13.40
2018-02-15T01:35:44.022Z,10.73
2018-02-15T01:38:11.584Z,9.73
2018-02-15T01:40:39.540Z,14.07
2018-02-15T01:43:07.097Z,14.80
2018-02-15T01:45:34.665Z,12.73
2018-02-15T01:48:02.261Z,13.80
2018-02-15T01:50:30.597Z,13.30
2018-02-15T01:52:58.473Z,12.83
2018-02-15T01:55:26.040Z,14.20
2018-02-15T01:57:53.613Z,14.63
2018-02-15T02:00:21.248Z,13.83
2018-02-15T02:02:48.828Z,12.50
2018-02-15T02:05:17.940Z,13.57
2018-02-15T02:07:46.276Z,14.53
2018-02-15T02:10:13.845Z,13.77
2018-02-15T02:12:41.767Z,15.00
2018-02-15T02:15:09.340Z,13.47
2018-02-15T02:17:36.912Z,11.67
2018-02-15T02:20:04.489Z,13.20
2018-02-15T02:22:32.827Z,14.07
2018-02-15T02:25:00.714Z,14.50
2018-02-15T02:27:28.292Z,12.37
2018-02-15T02:29:56.649Z,13.63
2018-02-15T02:32:24.233Z,13.60
2018-02-15T02:34:51.787Z,13.40
2018-02-15T02:37:20.407Z,15.10
2018-02-15T02:39:48.736Z,14.27
2018-02-15T02:42:16.341Z,14.13
2018-02-15T02:44:44.817Z,13.50
2018-02-15T02:47:13.131Z,14.33
2018-02-15T02:49:40.716Z,12.57
2018-02-15T02:52:08.395Z,13.87
2018-02-15T02:54:37.092Z,13.40
2018-02-15T02:57:05.733Z,12.70
2018-02-15T02:59:33.298Z,13.77
2018-02-15T03:02:00.868Z,13.00
2018-02-15T03:04:28.454Z,14.00
2018-02-15T03:06:57.015Z,13.23
2018-02-15T03:09:25.110Z,11.50
2018-02-15T03:11:53.459Z,13.43
2018-02-15T03:14:22.542Z,12.97
2018-02-15T03:16:50.407Z,12.80
2018-02-15T03:19:17.969Z,12.70
2018-02-15T03:21:45.532Z,13.50
2018-02-15T03:24:13.497Z,13.57
2018-02-15T03:26:41.090Z,13.03
2018-02-15T03:29:09.418Z,12.13
2018-02-15T03:31:37.296Z,11.80
2018-02-15T03:34:04.918Z,11.60
2018-02-15T03:36:32.481Z,13.33
2018-02-15T03:39:00.078Z,12.47
2018-02-15T03:41:27.642Z,11.47
2018-02-15T03:43:55.208Z,12.90
2018-02-15T03:46:23.597Z,11.30
2018-02-15T03:48:51.988Z,12.50
2018-02-15T03:51:20.320Z,12.00
2018-02-15T03:53:47.919Z,12.10
2018-02-15T03:56:16.276Z,12.07
2018-02-15T03:58:43.838Z,12.10
2018-02-15T04:01:12.913Z,11.90
2018-02-15T04:03:40.494Z,11.70
2018-02-15T04:06:09.611Z,11.00
2018-02-15T04:08:37.954Z,11.20
2018-02-15T04:11:06.293Z,12.40
2018-02-15T04:13:33.867Z,9.63
2018-02-15T04:16:01.450Z,10.00
2018-02-15T04:18:29.406Z,12.77
2018-02-15T04:20:57.019Z,11.93
2018-02-15T04:23:24.580Z,12.30
2018-02-15T04:25:52.182Z,11.50
2018-02-15T04:28:19.747Z,9.40
2018-02-15T04:30:47.602Z,11.57
2018-02-15T04:33:15.162Z,13.23
2018-02-15T04:35:42.736Z,12.63
2018-02-15T04:38:10.334Z,9.60
2018-02-15T04:40:37.934Z,11.30
2018-02-15T04:43:05.525Z,11.03
2018-02-15T04:45:33.101Z,11.50
2018-02-15T04:48:01.737Z,10.67
2018-02-15T04:50:29.325Z,10.37
2018-02-15T04:52:58.436Z,11.40
2018-02-15T04:55:26.775Z,11.43
2018-02-15T04:57:54.743Z,12.13
2018-02-15T05:00:22.342Z,12.00
2018-02-15T05:02:50.672Z,11.23
2018-02-15T05:05:18.356Z,12.57
2018-02-15T05:07:45.904Z,13.57
2018-02-15T05:10:13.772Z,10.93
2018-02-15T05:12:42.098Z,14.60
2018-02-15T05:15:09.660Z,10.93
2018-02-15T05:17:37.256Z,12.70
2018-02-15T05:20:04.829Z,13.63
2018-02-15T05:22:33.090Z,13.30
2018-02-15T05:25:00.689Z,14.10
2018-02-15T05:27:29.246Z,13.97
2018-02-15T05:29:56.887Z,13.73
2018-02-15T05:32:24.496Z,14.67
2018-02-15T05:34:52.826Z,15.90
2018-02-15T05:37:20.410Z,14.43
2018-02-15T05:39:47.984Z,14.90
2018-02-15T05:42:16.614Z,15.50
2018-02-15T05:44:44.213Z,13.33
2018-02-15T05:47:11.791Z,16.33
2018-02-15T05:49:40.154Z,16.57
2018-02-15T05:52:07.735Z,17.33
2018-02-15T05:54:36.394Z,19.60
2018-02-15T05:57:05.483Z,15.53
2018-02-15T05:59:33.050Z,18.43
2018-02-15T06:02:00.643Z,17.60
2018-02-15T06:04:28.216Z,12.67
2018-02-15T06:06:56.149Z,21.47
2018-02-15T06:09:24.518Z,19.13
2018-02-15T06:11:54.170Z,16.90
2018-02-15T06:14:22.158Z,19.73
2018-02-15T06:16:49.731Z,18.33
2018-02-15T06:19:17.332Z,16.53
2018-02-15T06:21:45.389Z,19.07
2018-02-15T06:24:13.021Z,16.17
2018-02-15T06:26:40.596Z,19.87
2018-02-15T06:29:09.259Z,20.00
2018-02-15T06:31:36.841Z,22.47
2018-02-15T06:34:04.409Z,21.93
2018-02-15T06:36:32.790Z,14.77
2018-02-15T06:39:01.399Z,23.73
2018-02-15T06:41:29.094Z,23.17
2018-02-15T06:43:56.656Z,17.50
2018-02-15T06:46:24.651Z,22.73
2018-02-15T06:48:52.980Z,23.10
2018-02-15T06:51:20.547Z,23.57
2018-02-15T06:53:48.467Z,22.23
2018-02-15T06:56:17.083Z,21.73
2018-02-15T06:58:44.653Z,26.07
2018-02-15T07:01:12.499Z,20.87
2018-02-15T07:03:40.076Z,23.77
2018-02-15T07:06:07.663Z,26.60
2018-02-15T07:08:35.627Z,27.77
2018-02-15T07:11:03.200Z,24.70
2018-02-15T07:13:30.809Z,27.80
2018-02-15T07:15:58.408Z,23.07
2018-02-15T07:18:26.049Z,26.53
2018-02-15T07:20:54.039Z,25.13
2018-02-15T07:23:23.104Z,31.03
2018-02-15T07:25:50.662Z,28.20
2018-02-15T07:28:18.505Z,31.20
2018-02-15T07:30:46.059Z,32.47
2018-02-15T07:33:13.639Z,27.37
2018-02-15T07:35:41.339Z,29.20
2018-02-15T07:38:09.666Z,31.67
2018-02-15T07:40:37.242Z,29.77
2018-02-15T07:43:05.140Z,28.70
2018-02-15T07:45:32.701Z,31.47
2018-02-15T07:48:00.261Z,22.07
2018-02-15T07:50:28.888Z,30.57
2018-02-15T07:52:56.527Z,30.90
2018-02-15T07:55:24.850Z,26.80
2018-02-15T07:57:52.727Z,29.77
2018-02-15T08:00:20.290Z,28.47
2018-02-15T08:02:47.890Z,28.03
2018-02-15T08:05:16.274Z,29.70
2018-02-15T08:07:43.844Z,25.17
2018-02-15T08:10:11.451Z,26.80
2018-02-15T08:12:39.043Z,24.07
2018-02-15T08:15:07.435Z,26.53
2018-02-15T08:17:35.000Z,29.63
2018-02-15T08:20:02.887Z,21.60
2018-02-15T08:22:30.446Z,23.87
2018-02-15T08:24:58.118Z,25.60
2018-02-15T08:27:25.702Z,28.03
2018-02-15T08:29:54.033Z,27.10
2018-02-15T08:32:21.935Z,29.53
2018-02-15T08:34:49.484Z,32.40
2018-02-15T08:37:17.045Z,27.53
2018-02-15T08:39:45.009Z,27.27
2018-02-15T08:42:12.576Z,27.13
2018-02-15T08:44:40.138Z,22.87
2018-02-15T08:47:07.733Z,26.00
2018-02-15T08:49:36.035Z,24.20
2018-02-15T08:52:03.738Z,23.30
2018-02-15T08:54:31.565Z,25.70
2018-02-15T08:56:59.141Z,26.17
2018-02-15T08:59:26.695Z,23.97
2018-02-15T09:01:54.301Z,24.73
2018-02-15T09:04:22.694Z,23.43
2018-02-15T09:06:51.045Z,25.73
2018-02-15T09:09:19.023Z,26.07
2018-02-15T09:11:47.377Z,23.63
2018-02-15T09:14:14.947Z,24.50
2018-02-15T09:16:42.556Z,21.50
2018-02-15T09:19:10.142Z,24.63
2018-02-15T09:21:37.699Z,24.37
2018-02-15T09:24:05.310Z,23.23
2018-02-15T09:26:33.664Z,23.97
2018-02-15T09:29:02.227Z,24.00
2018-02-15T09:31:29.838Z,22.60
2018-02-15T09:33:57.433Z,22.97
2018-02-15T09:36:25.000Z,22.30
2018-02-15T09:38:52.601Z,22.67
2018-02-15T09:41:20.936Z,22.37
2018-02-15T09:43:48.575Z,23.30
2018-02-15T09:46:16.443Z,21.67
2018-02-15T09:48:44.002Z,23.40
2018-02-15T09:51:11.570Z,20.90
2018-02-15T09:53:39.464Z,21.33
2018-02-15T09:56:07.038Z,23.03
2018-02-15T09:58:35.368Z,23.23
2018-02-15T10:01:03.379Z,21.40
2018-02-15T10:03:31.712Z,21.60
2018-02-15T10:05:59.280Z,20.70
2018-02-15T10:08:27.173Z,22.60
2018-02-15T10:10:54.759Z,22.07
2018-02-15T10:13:23.077Z,23.37
2018-02-15T10:15:50.721Z,21.50
2018-02-15T10:18:18.290Z,21.67
2018-02-15T10:20:45.865Z,24.67
2018-02-15T10:23:13.792Z,21.83
2018-02-15T10:25:41.347Z,20.83
2018-02-15T10:28:08.924Z,22.07
2018-02-15T10:30:37.494Z,21.73
2018-02-15T10:33:05.065Z,21.30
2018-02-15T10:35:32.652Z,21.00
2018-02-15T10:38:00.529Z,20.60
2018-02-15T10:40:28.096Z,22.57
2018-02-15T10:42:56.421Z,22.57
2018-02-15T10:45:24.412Z,21.90
2018-02-15T10:47:51.976Z,21.90
2018-02-15T10:50:19.547Z,22.47
2018-02-15T10:52:47.387Z,21.60
2018-02-15T10:55:14.957Z,21.60
2018-02-15T10:57:42.619Z,22.13
2018-02-15T11:00:10.206Z,24.37
2018-02-15T11:02:38.552Z,24.30
2018-02-15T11:05:11.780Z,25.30
2018-02-15T11:07:39.641Z,25.10
2018-02-15T11:10:07.205Z,23.70
2018-02-15T11:12:35.547Z,25.77
2018-02-15T11:15:03.388Z,25.13
2018-02-15T11:17:30.973Z,26.53
2018-02-15T11:19:58.547Z,25.73
2018-02-15T11:22:26.396Z,24.63
2018-02-15T11:24:53.967Z,26.50
2018-02-15T11:27:21.530Z,26.60
2018-02-15T11:29:49.402Z,32.90
2018-02-15T11:32:16.957Z,29.17
2018-02-15T11:34:44.533Z,30.80
2018-02-15T11:37:12.510Z,31.83
2018-02-15T11:39:40.826Z,33.47
2018-02-15T11:42:08.421Z,29.90
2018-02-15T11:44:36.312Z,32.10
2018-02-15T11:47:04.661Z,32.60
2018-02-15T11:49:32.215Z,34.90
2018-02-15T11:51:59.798Z,33.27
2018-02-15T11:54:27.381Z,33.23
2018-02-15T11:56:54.969Z,34.53
2018-02-15T11:59:22.765Z,35.47
2018-02-15T12:01:51.840Z,36.10
2018-02-15T12:04:19.586Z,37.53
2018-02-15T12:06:47.207Z,38.93
2018-02-15T12:09:15.536Z,38.80
2018-02-15T12:11:43.105Z,39.73
2018-02-15T12:14:11.190Z,40.07
2018-02-15T12:16:38.764Z,39.23
2018-02-15T12:19:07.106Z,41.07
2018-02-15T12:21:34.977Z,43.60
2018-02-15T12:24:02.535Z,41.00
2018-02-15T12:26:30.098Z,43.47
2018-02-15T12:28:57.942Z,44.93
2018-02-15T12:31:25.662Z,45.60
2018-02-15T12:33:53.283Z,49.43
2018-02-15T12:36:21.137Z,47.20
2018-02-15T12:38:48.710Z,49.80
2018-02-15T12:41:16.281Z,50.93
2018-02-15T12:43:44.195Z,51.13
2018-02-15T12:46:12.509Z,55.63
2018-02-15T12:48:40.071Z,51.40
2018-02-15T12:51:07.933Z,51.17
2018-02-15T12:53:36.286Z,52.37
2018-02-15T12:56:03.850Z,54.23
2018-02-15T12:58:31.744Z,53.87
2018-02-15T13:00:59.309Z,52.97
2018-02-15T13:03:26.884Z,52.50
2018-02-15T13:05:55.712Z,54.60
2018-02-15T13:08:23.284Z,53.30
2018-02-15T13:10:50.978Z,54.20
2018-02-15T13:13:30.365Z,54.27
2018-02-15T13:16:09.599Z,51.07
2018-02-15T13:18:37.857Z,54.30
2018-02-15T13:21:05.455Z,52.63
2018-02-15T13:23:33.044Z,55.17
2018-02-15T13:26:00.916Z,55.27
2018-02-15T13:28:38.479Z,51.80
2018-02-15T13:31:06.354Z,54.27
2018-02-15T13:33:33.937Z,51.73
2018-02-15T13:36:02.464Z,50.90
2018-02-15T13:38:30.336Z,50.70
2018-02-15T13:40:57.924Z,52.80
2018-02-15T13:43:25.517Z,59.20
2018-02-15T13:45:53.888Z,59.87
2018-02-15T13:48:22.234Z,55.20
2018-02-15T13:50:50.262Z,57.57
2018-02-15T13:53:17.900Z,57.83
2018-02-15T13:55:45.472Z,55.43
2018-02-15T13:58:13.321Z,55.37
2018-02-15T14:00:41.660Z,58.87
2018-02-15T14:03:09.289Z,55.13
2018-02-15T14:05:37.182Z,59.80
2018-02-15T14:08:05.171Z,57.43
2018-02-15T14:10:33.502Z,55.50
2018-02-15T14:13:01.528Z,56.53
2018-02-15T14:15:29.881Z,56.17
2018-02-15T14:17:57.469Z,56.93
2018-02-15T14:20:25.821Z,57.30
2018-02-15T14:22:53.443Z,52.17
2018-02-15T14:25:21.019Z,55.23
2018-02-15T14:27:48.897Z,57.77
2018-02-15T14:30:16.475Z,56.17
2018-02-15T14:32:44.058Z,52.50
2018-02-15T14:35:12.422Z,52.87
2018-02-15T14:37:40.791Z,53.17
2018-02-15T14:40:09.155Z,54.50
2018-02-15T14:42:36.708Z,54.63
2018-02-15T14:45:04.670Z,56.30
2018-02-15T14:47:32.259Z,58.00
2018-02-15T14:50:00.585Z,55.63
2018-02-15T14:52:28.179Z,53.70
2018-02-15T14:54:55.751Z,54.10
2018-02-15T14:57:24.136Z,55.10
2018-02-15T14:59:52.644Z,54.53
2018-02-15T15:02:20.197Z,51.30
2018-02-15T15:04:47.807Z,49.00
2018-02-15T15:07:15.367Z,51.93
2018-02-15T15:09:43.017Z,53.27
2018-02-15T15:12:11.042Z,52.27
2018-02-15T15:14:38.902Z,51.83
2018-02-15T15:17:07.248Z,54.03
2018-02-15T15:19:34.837Z,50.77
2018-02-15T15:22:03.560Z,50.50
2018-02-15T15:24:31.184Z,47.40
2018-02-15T15:26:58.757Z,49.60
2018-02-15T15:29:26.438Z,47.47
2018-02-15T15:31:54.040Z,47.50
2018-02-15T15:34:22.379Z,42.30
2018-02-15T15:36:50.274Z,45.93
2018-02-15T15:39:18.190Z,45.07
2018-02-15T15:41:45.759Z,44.40
2018-02-15T15:44:13.380Z,46.47
2018-02-15T15:46:41.731Z,45.43
2018-02-15T15:49:09.350Z,47.83
2018-02-15T15:51:37.013Z,46.60
2018-02-15T15:54:04.580Z,43.00
2018-02-15T15:56:32.192Z,45.00
2018-02-15T15:59:00.582Z,45.23
2018-02-15T16:01:29.323Z,46.07
2018-02-15T16:03:56.955Z,46.80
2018-02-15T16:06:24.529Z,44.87
2018-02-15T16:08:52.155Z,44.80
2018-02-15T16:11:19.742Z,45.60
2018-02-15T16:13:47.409Z,45.63
2018-02-15T16:16:15.030Z,45.33
2018-02-15T16:18:43.409Z,45.50
2018-02-15T16:21:11.292Z,46.97
2018-02-15T16:23:38.885Z,46.57
2018-02-15T16:26:06.467Z,46.43
2018-02-15T16:28:34.434Z,45.10
2018-02-15T16:31:02.031Z,47.40
2018-02-15T16:33:29.633Z,47.80
2018-02-15T16:35:57.337Z,48.83
2018-02-15T16:38:25.282Z,47.20
2018-02-15T16:40:54.355Z,50.20
2018-02-15T16:43:21.939Z,47.43
2018-02-15T16:45:50.539Z,52.77
2018-02-15T16:48:18.870Z,51.43
2018-02-15T16:50:46.454Z,50.50
2018-02-15T16:53:15.810Z,48.17
2018-02-15T16:55:43.467Z,50.13
2018-02-15T16:58:11.052Z,48.97
2018-02-15T17:00:39.011Z,51.03
2018-02-15T17:03:06.595Z,49.50
2018-02-15T17:05:34.159Z,49.60
2018-02-15T17:08:02.550Z,47.40
2018-02-15T17:10:31.398Z,45.77
2018-02-15T17:12:59.015Z,48.77
2018-02-15T17:15:26.588Z,49.37
2018-02-15T17:17:54.161Z,51.63
2018-02-15T17:20:22.003Z,52.23
2018-02-15T17:22:49.587Z,52.60
2018-02-15T17:25:17.163Z,52.90
2018-02-15T17:27:44.785Z,50.10
2018-02-15T17:30:12.365Z,52.10
2018-02-15T17:32:39.958Z,54.63
2018-02-15T17:35:08.639Z,54.37
2018-02-15T17:37:36.202Z,57.70
2018-02-15T17:40:03.926Z,56.53
2018-02-15T17:42:31.816Z,55.93
2018-02-15T17:44:59.407Z,57.23
2018-02-15T17:47:27.789Z,62.33
2018-02-15T17:49:56.157Z,59.03
2018-02-15T17:52:24.648Z,61.10
2018-02-15T17:54:52.990Z,62.27
2018-02-15T17:57:20.621Z,67.00
2018-02-15T17:59:48.191Z,60.57
2018-02-15T18:02:15.863Z,60.67
2018-02-15T18:04:43.850Z,63.13
2018-02-15T18:07:11.446Z,62.20
2018-02-15T18:09:39.025Z,65.67
2018-02-15T18:12:06.653Z,63.50
2018-02-15T18:14:35.090Z,62.70
2018-02-15T18:17:02.831Z,64.33
2018-02-15T18:19:30.755Z,67.20
2018-02-15T18:21:59.085Z,66.50
2018-02-15T18:24:26.666Z,68.60
2018-02-15T18:26:54.297Z,64.83
2018-02-15T18:29:21.864Z,60.50
2018-02-15T18:31:50.677Z,65.33
2018-02-15T18:34:18.243Z,78.47
2018-02-15T18:36:45.845Z,69.40
2018-02-15T18:39:13.874Z,73.43
2018-02-15T18:41:42.959Z,73.27
2018-02-15T18:44:10.556Z,77.83
2018-02-15T18:46:39.204Z,76.10
2018-02-15T18:49:06.793Z,77.20
2018-02-15T18:51:35.126Z,75.00
2018-02-15T18:54:02.989Z,79.50
2018-02-15T18:56:30.581Z,84.37
2018-02-15T18:58:58.147Z,87.07
2018-02-15T19:01:26.509Z,97.60
2018-02-15T19:03:54.223Z,97.13
2018-02-15T19:06:22.769Z,99.10
2018-02-15T19:08:50.603Z,106.80
2018-02-15T19:11:18.204Z,101.47
2018-02-15T19:13:47.715Z,108.40
2018-02-15T19:16:15.589Z,97.80
2018-02-15T19:18:43.361Z,106.37
2018-02-15T19:21:10.991Z,119.07
2018-02-15T19:23:39.655Z,103.83
2018-02-15T19:26:07.266Z,120.30
2018-02-15T19:28:34.851Z,106.53
2018-02-15T19:31:02.466Z,109.90
2018-02-15T19:33:31.796Z,101.97
2018-02-15T19:35:59.379Z,102.00
2018-02-15T19:38:26.981Z,120.97
2018-02-15T19:40:55.356Z,105.40
2018-02-15T19:43:23.709Z,107.27
2018-02-15T19:45:52.113Z,99.70
2018-02-15T19:48:20.517Z,101.63
2018-02-15T19:50:48.131Z,105.10
2018-02-15T19:53:16.781Z,112.70
2018-02-15T19:55:44.362Z,100.17
2018-02-15T19:58:13.449Z,107.77
2018-02-15T20:00:42.095Z,107.30
2018-02-15T20:03:10.279Z,98.20
2018-02-15T20:05:37.866Z,95.20
2018-02-15T20:08:05.498Z,104.10
2018-02-15T20:10:33.125Z,99.70
2018-02-15T20:13:01.518Z,97.00
2018-02-15T20:15:35.777Z,103.40
2018-02-15T20:18:03.407Z,104.87
2018-02-15T20:20:31.656Z,102.40
2018-02-15T20:22:59.265Z,107.57
2018-02-15T20:25:27.170Z,101.07
2018-02-15T20:28:01.179Z,109.50
2018-02-15T20:30:29.564Z,105.20
2018-02-15T20:32:58.056Z,105.57
2018-02-15T20:35:25.653Z,104.00
2018-02-15T20:37:59.186Z,90.67
2018-02-15T20:40:33.186Z,84.03
2018-02-15T20:43:01.574Z,84.53
2018-02-15T20:45:30.242Z,70.57
2018-02-15T20:47:57.806Z,83.27
2018-02-15T20:50:31.324Z,86.93
2018-02-15T20:53:05.221Z,100.77
2018-02-15T20:55:39.285Z,90.10
2018-02-15T20:58:06.933Z,82.50
2018-02-15T21:00:34.594Z,88.10
2018-02-15T21:03:02.942Z,70.97
2018-02-15T21:05:31.271Z,83.97
2018-02-15T21:07:59.258Z,81.90
2018-02-15T21:10:26.860Z,76.50
2018-02-15T21:12:55.185Z,74.10
2018-02-15T21:15:22.797Z,80.03
2018-02-15T21:17:51.200Z,79.37
2018-02-15T21:20:18.831Z,74.33
2018-02-15T21:22:47.169Z,84.47
2018-02-15T21:25:14.765Z,92.03
2018-02-15T21:27:44.005Z,103.53
2018-02-15T21:30:11.603Z,128.33
2018-02-15T21:32:39.968Z,123.50
2018-02-15T21:35:08.311Z,122.90
2018-02-15T21:37:35.905Z,120.33
2018-02-15T21:40:03.488Z,119.80
2018-02-15T21:42:32.312Z,120.80
2018-02-15T21:44:59.918Z,109.93
2018-02-15T21:47:29.068Z,70.07
2018-02-15T21:49:56.679Z,102.13
2018-02-15T21:52:25.024Z,115.57
2018-02-15T21:54:53.014Z,116.50
2018-02-15T21:57:20.721Z,85.67
2018-02-15T21:59:48.303Z,109.07
2018-02-15T22:02:15.901Z,114.03
2018-02-15T22:04:43.475Z,121.83
2018-02-15T22:07:11.860Z,114.97
2018-02-15T22:09:40.210Z,110.77
2018-02-15T22:12:07.944Z,86.77
2018-02-15T22:14:35.831Z,96.63
2018-02-15T22:17:03.402Z,57.53
2018-02-15T22:19:30.978Z,94.53
2018-02-15T22:21:59.357Z,93.10
2018-02-15T22:24:27.713Z,93.53
2018-02-15T22:26:55.289Z,92.10
2018-02-15T22:29:23.636Z,69.77
2018-02-15T22:31:51.210Z,54.77
2018-02-15T22:34:19.177Z,60.23
2018-02-15T22:36:47.535Z,54.67
2018-02-15T22:39:15.105Z,55.60
2018-02-15T22:41:42.742Z,56.20
2018-02-15T22:44:10.352Z,57.83
2018-02-15T22:46:40.073Z,58.87
2018-02-15T22:49:08.402Z,59.20
2018-02-15T22:51:35.975Z,57.37
2018-02-15T22:54:04.340Z,63.10
2018-02-15T22:56:31.910Z,58.17
2018-02-15T22:58:59.511Z,60.67
2018-02-15T23:01:27.137Z,58.40
2018-02-15T23:03:54.708Z,56.70
2018-02-15T23:06:23.142Z,56.60
2018-02-15T23:08:50.722Z,58.03
2018-02-15T23:11:18.356Z,57.93
2018-02-15T23:13:45.958Z,58.13
2018-02-15T23:16:14.330Z,60.30
2018-02-15T23:18:43.555Z,59.93
2018-02-15T23:21:11.115Z,57.10
2018-02-15T23:23:38.976Z,59.73
2018-02-15T23:26:07.382Z,57.87
2018-02-15T23:28:36.697Z,57.60
2018-02-15T23:31:04.413Z,59.10
2018-02-15T23:33:32.746Z,58.37
2018-02-15T23:36:00.315Z,59.97
2018-02-15T23:38:27.920Z,56.13
2018-02-15T23:40:55.487Z,65.00
2018-02-15T23:43:23.332Z,62.53
2018-02-15T23:45:51.676Z,60.63
2018-02-15T23:48:19.239Z,60.27
2018-02-15T23:50:46.853Z,57.10
2018-02-15T23:53:14.490Z,59.57
2018-02-15T23:55:43.258Z,58.27
2018-02-15T23:58:11.584Z,58.20
